createdAt,value
2019-02-15T00:02:17.753Z,7.10
2019-02-15T00:04:47.502Z,7.20
2019-02-15T00:07:17.944Z,7.20
2019-02-15T00:09:47.759Z,7.20
2019-02-15T00:12:17.496Z,7.10
2019-02-15T00:14:48.891Z,7.10
2019-02-15T00:17:36.668Z,7.20
2019-02-15T00:20:10.479Z,7.20
2019-02-15T00:22:40.171Z,7.20
2019-02-15T00:25:10.824Z,7.10
2019-02-15T00:27:40.673Z,7.10
2019-02-15T00:30:11.571Z,7.10
2019-02-15T00:32:41.347Z,7.10
2019-02-15T00:35:11.092Z,7.10
2019-02-15T00:37:40.796Z,7.10
2019-02-15T00:40:10.556Z,7.10
2019-02-15T00:42:40.264Z,7.10
2019-02-15T00:45:11.803Z,7.10
2019-02-15T00:47:56.116Z,7.10
2019-02-15T00:50:57.081Z,7.10
2019-02-15T00:53:45.742Z,7.00
2019-02-15T00:56:34.380Z,6.80
2019-02-15T00:59:23.199Z,6.70
2019-02-15T01:02:12.173Z,6.60
2019-02-15T01:04:52.682Z,6.40
2019-02-15T01:07:44.355Z,6.30
2019-02-15T01:10:20.679Z,6.30
2019-02-15T01:12:54.436Z,6.30
2019-02-15T01:15:24.435Z,6.30
2019-02-15T01:17:54.309Z,6.30
2019-02-15T01:20:24.023Z,6.30
2019-02-15T01:22:53.792Z,6.40
2019-02-15T01:25:24.213Z,6.40
2019-02-15T01:28:04.983Z,6.40
2019-02-15T01:31:05.891Z,6.40
2019-02-15T01:34:00.321Z,6.40
2019-02-15T01:36:42.288Z,6.30
2019-02-15T01:39:27.452Z,6.20
2019-02-15T01:42:31.149Z,6.00
2019-02-15T01:45:22.849Z,5.90
2019-02-15T01:47:52.634Z,5.70
2019-02-15T01:50:22.375Z,5.50
2019-02-15T01:52:52.089Z,5.30
2019-02-15T01:55:21.849Z,5.20
2019-02-15T01:57:51.642Z,5.10
2019-02-15T02:00:22.830Z,4.90
2019-02-15T02:02:58.396Z,4.80
2019-02-15T02:05:28.095Z,4.70
2019-02-15T02:07:57.842Z,4.60
2019-02-15T02:10:27.531Z,4.50
2019-02-15T02:12:57.247Z,4.40
2019-02-15T02:15:27.180Z,4.40
2019-02-15T02:17:58.895Z,4.40
2019-02-15T02:20:28.719Z,4.40
2019-02-15T02:22:58.452Z,4.40
2019-02-15T02:25:28.223Z,4.30
2019-02-15T02:27:58.077Z,4.20
2019-02-15T02:30:27.897Z,4.20
2019-02-15T02:32:57.596Z,4.00
2019-02-15T02:35:27.313Z,3.90
2019-02-15T02:37:57.098Z,3.90
2019-02-15T02:40:26.955Z,3.90
2019-02-15T02:42:56.716Z,3.80
2019-02-15T02:45:26.516Z,3.80
2019-02-15T02:47:56.364Z,3.60
2019-02-15T02:50:26.222Z,3.60
2019-02-15T02:52:55.905Z,3.60
2019-02-15T02:55:25.779Z,3.50
2019-02-15T02:57:55.526Z,3.50
2019-02-15T03:00:33.291Z,3.50
2019-02-15T03:02:56.694Z,3.40
2019-02-15T03:05:26.452Z,3.30
2019-02-15T03:07:56.185Z,3.20
2019-02-15T03:10:25.951Z,3.10
2019-02-15T03:12:55.764Z,3.00
2019-02-15T03:15:25.474Z,3.00
2019-02-15T03:17:55.360Z,3.00
2019-02-15T03:20:31.178Z,2.90
2019-02-15T03:22:56.502Z,2.90
2019-02-15T03:25:26.309Z,2.90
2019-02-15T03:27:56.196Z,2.90
2019-02-15T03:30:25.884Z,2.80
2019-02-15T03:32:55.634Z,2.70
2019-02-15T03:35:25.356Z,2.70
2019-02-15T03:38:23.014Z,2.70
2019-02-15T03:40:56.728Z,2.60
2019-02-15T03:43:26.459Z,2.60
2019-02-15T03:45:56.235Z,2.50
2019-02-15T03:48:25.957Z,2.50
2019-02-15T07:22:00.704Z,5.40
2019-02-15T07:24:30.563Z,7.80
2019-02-15T07:27:00.241Z,9.80
2019-02-15T07:29:29.938Z,11.30
2019-02-15T07:31:59.651Z,12.50
2019-02-15T07:34:29.341Z,13.60
2019-02-15T07:36:59.044Z,14.90
2019-02-15T07:39:28.717Z,16.00
2019-02-15T07:41:58.445Z,17.40
2019-02-15T07:44:28.205Z,18.80
2019-02-15T07:46:57.965Z,20.30
2019-02-15T07:49:27.741Z,21.00
2019-02-15T07:51:57.527Z,21.70
2019-02-15T07:54:27.333Z,22.20
2019-02-15T07:56:57.123Z,22.60
2019-02-15T07:59:26.896Z,23.30
2019-02-15T08:02:01.855Z,22.70
2019-02-15T08:04:27.895Z,22.20
2019-02-15T08:06:57.604Z,22.40
2019-02-15T08:09:27.373Z,20.60
2019-02-15T08:11:57.207Z,20.50
2019-02-15T08:14:26.938Z,21.00
2019-02-15T08:16:56.641Z,21.20
2019-02-15T08:19:26.352Z,21.40
2019-02-15T08:21:56.047Z,22.10
2019-02-15T08:24:25.758Z,19.70
2019-02-15T08:26:55.481Z,20.50
2019-02-15T08:29:26.445Z,18.40
2019-02-15T08:31:56.188Z,16.50
2019-02-15T08:34:25.866Z,15.80
2019-02-15T08:36:55.652Z,17.00
2019-02-15T08:39:25.419Z,18.50
2019-02-15T08:42:01.732Z,18.00
2019-02-15T08:44:26.438Z,18.40
2019-02-15T08:46:56.168Z,18.80
2019-02-15T08:49:25.817Z,17.90
2019-02-15T08:51:55.542Z,19.30
2019-02-15T08:54:25.211Z,18.90
2019-02-15T08:56:54.958Z,19.50
2019-02-15T08:59:24.716Z,19.50
2019-02-15T09:02:06.311Z,20.00
2019-02-15T09:04:36.070Z,21.00
2019-02-15T09:07:05.825Z,19.80
2019-02-15T09:09:37.266Z,19.80
2019-02-15T09:12:07.019Z,19.90
2019-02-15T09:14:36.699Z,19.10
2019-02-15T09:17:06.382Z,20.40
2019-02-15T09:19:36.288Z,20.90
2019-02-15T09:22:06.035Z,20.20
2019-02-15T09:24:35.698Z,18.20
2019-02-15T09:27:24.391Z,16.10
2019-02-15T09:29:54.051Z,14.00
2019-02-15T09:32:24.946Z,12.30
2019-02-15T09:34:54.606Z,11.10
2019-02-15T09:37:24.423Z,10.50
2019-02-15T09:39:54.234Z,10.10
2019-02-15T09:42:24.009Z,10.00
2019-02-15T09:44:53.695Z,10.10
2019-02-15T09:47:23.491Z,9.80
2019-02-15T09:49:53.137Z,9.50
2019-02-15T09:52:22.970Z,9.40
2019-02-15T09:54:52.671Z,9.30
2019-02-15T09:57:22.390Z,9.30
2019-02-15T09:59:52.038Z,9.40
2019-02-15T10:02:21.917Z,9.40
2019-02-15T10:04:51.604Z,9.40
2019-02-15T10:07:21.306Z,9.40
2019-02-15T10:09:51.023Z,9.50
2019-02-15T10:12:20.734Z,9.40
2019-02-15T10:14:50.512Z,9.50
2019-02-15T10:17:20.282Z,9.40
2019-02-15T10:19:49.984Z,9.50
2019-02-15T10:22:19.638Z,9.40
2019-02-15T10:24:49.437Z,9.40
2019-02-15T10:27:21.175Z,9.40
2019-02-15T10:29:50.858Z,9.40
2019-02-15T10:32:20.538Z,9.40
2019-02-15T10:34:50.266Z,9.40
2019-02-15T10:37:19.987Z,9.50
2019-02-15T10:39:49.668Z,9.50
2019-02-15T10:42:19.335Z,9.40
2019-02-15T10:44:49.035Z,9.50
2019-02-15T10:47:24.716Z,9.50
2019-02-15T10:49:50.102Z,9.50
2019-02-15T10:52:19.798Z,9.50
2019-02-15T10:54:49.541Z,9.50
2019-02-15T10:57:19.223Z,9.50
2019-02-15T10:59:48.994Z,9.30
2019-02-15T11:02:18.665Z,9.30
2019-02-15T11:04:48.391Z,9.40
2019-02-15T11:07:18.023Z,9.50
2019-02-15T11:09:47.730Z,9.60
2019-02-15T11:12:17.465Z,9.70
2019-02-15T11:14:47.170Z,9.80
2019-02-15T11:17:16.840Z,9.80
2019-02-15T11:19:46.550Z,9.80
2019-02-15T11:22:16.187Z,10.00
2019-02-15T11:24:46.078Z,10.10
2019-02-15T11:27:15.874Z,10.20
2019-02-15T11:29:45.562Z,10.30
2019-02-15T11:32:15.223Z,10.30
2019-02-15T11:34:44.934Z,10.30
2019-02-15T11:37:14.619Z,10.40
2019-02-15T11:39:44.319Z,10.50
2019-02-15T11:42:14.002Z,10.50
2019-02-15T11:44:43.758Z,10.50
2019-02-15T11:47:13.456Z,10.50
2019-02-15T11:49:43.167Z,10.50
2019-02-15T11:52:12.818Z,10.50
2019-02-15T11:54:42.530Z,10.60
2019-02-15T11:57:12.179Z,10.50
2019-02-15T11:59:41.859Z,10.50
2019-02-15T12:02:11.532Z,10.50
2019-02-15T12:04:41.245Z,10.50
2019-02-15T12:07:10.983Z,10.50
2019-02-15T12:09:40.686Z,10.50
2019-02-15T12:12:11.087Z,10.60
2019-02-15T12:14:40.994Z,10.60
2019-02-15T12:17:10.671Z,10.70
2019-02-15T12:19:40.373Z,10.80
2019-02-15T12:22:10.185Z,10.80
2019-02-15T12:24:39.938Z,10.90
2019-02-15T12:27:09.574Z,10.90
2019-02-15T12:29:39.306Z,10.80
2019-02-15T12:32:11.255Z,10.90
2019-02-15T12:34:40.948Z,10.90
2019-02-15T12:37:10.658Z,10.90
2019-02-15T12:39:40.378Z,11.00
2019-02-15T12:42:10.106Z,11.00
2019-02-15T12:44:39.948Z,11.10
2019-02-15T12:47:15.179Z,11.10
2019-02-15T12:49:40.984Z,11.10
2019-02-15T12:52:10.662Z,11.10
2019-02-15T12:54:40.358Z,11.00
2019-02-15T12:57:10.024Z,11.10
2019-02-15T12:59:39.816Z,11.20
2019-02-15T13:02:09.483Z,11.00
2019-02-15T13:04:39.193Z,11.00
2019-02-15T13:07:08.900Z,11.10
2019-02-15T13:09:38.618Z,11.00
2019-02-15T13:12:08.380Z,10.90
2019-02-15T13:14:38.143Z,10.90
2019-02-15T13:17:07.867Z,10.90
2019-02-15T13:19:37.575Z,10.90
2019-02-15T13:22:07.241Z,11.00
2019-02-15T13:24:37.003Z,11.00
2019-02-15T13:27:06.790Z,11.00
2019-02-15T13:29:36.492Z,11.10
2019-02-15T13:32:06.254Z,11.10
2019-02-15T13:34:35.963Z,11.10
2019-02-15T13:37:05.604Z,11.20
2019-02-15T13:39:35.331Z,11.10
2019-02-15T13:42:04.990Z,11.00
2019-02-15T13:44:34.728Z,11.00
2019-02-15T13:47:04.455Z,11.00
2019-02-15T13:49:34.231Z,11.00
2019-02-15T13:52:03.935Z,11.00
2019-02-15T13:54:33.656Z,11.10
2019-02-15T13:57:03.627Z,11.10
2019-02-15T13:59:33.415Z,11.10
2019-02-15T14:02:05.839Z,11.20
2019-02-15T14:04:35.522Z,11.20
2019-02-15T14:07:21.159Z,11.30
2019-02-15T14:09:50.951Z,11.30
2019-02-15T14:12:20.676Z,11.30
2019-02-15T14:14:50.365Z,11.30
2019-02-15T14:17:20.135Z,11.30
2019-02-15T14:19:49.804Z,11.40
2019-02-15T14:22:19.517Z,11.40
2019-02-15T14:24:49.311Z,11.30
2019-02-15T14:27:18.995Z,11.30
2019-02-15T14:29:50.469Z,11.30
2019-02-15T14:32:20.172Z,11.20
2019-02-15T14:34:49.783Z,11.30
2019-02-15T14:37:19.501Z,11.20
2019-02-15T14:39:49.354Z,11.20
2019-02-15T14:42:19.144Z,11.30
2019-02-15T14:44:48.834Z,11.30
2019-02-15T14:47:18.598Z,11.10
2019-02-15T14:49:48.255Z,11.10
2019-02-15T14:52:17.999Z,11.20
2019-02-15T14:54:47.829Z,11.30
2019-02-15T14:57:17.584Z,11.20
2019-02-15T14:59:47.344Z,11.20
2019-02-15T15:02:17.152Z,11.30
2019-02-15T15:04:46.936Z,11.40
2019-02-15T15:07:16.818Z,11.40
2019-02-15T15:09:46.508Z,11.40
2019-02-15T15:12:16.374Z,11.30
2019-02-15T15:14:46.053Z,11.20
2019-02-15T15:17:15.795Z,11.00
2019-02-15T15:19:45.479Z,11.00
2019-02-15T15:22:15.274Z,11.00
2019-02-15T15:24:44.962Z,10.90
2019-02-15T15:27:14.755Z,10.90
2019-02-15T15:29:44.523Z,10.80
2019-02-15T15:32:14.245Z,10.70
2019-02-15T15:34:43.930Z,10.70
2019-02-15T15:37:16.421Z,10.60
2019-02-15T15:39:45.115Z,10.50
2019-02-15T15:42:14.838Z,10.40
2019-02-15T15:44:44.567Z,10.20
2019-02-15T15:47:14.258Z,10.10
2019-02-15T15:49:43.967Z,10.10
2019-02-15T15:52:13.738Z,9.90
2019-02-15T15:54:43.429Z,9.80
2019-02-15T15:57:13.180Z,9.70
2019-02-15T15:59:42.933Z,9.60
2019-02-15T16:02:12.691Z,9.50
2019-02-15T16:04:42.386Z,9.40
2019-02-15T16:07:12.068Z,9.20
2019-02-15T16:09:42.292Z,9.20
2019-02-15T16:12:12.092Z,9.10
2019-02-15T16:14:41.931Z,9.10
2019-02-15T16:17:11.783Z,9.00
2019-02-15T16:19:49.230Z,8.90
2019-02-15T16:22:12.828Z,8.90
2019-02-15T16:24:42.474Z,8.80
2019-02-15T16:27:12.240Z,8.60
2019-02-15T16:29:42.045Z,8.60
2019-02-15T16:32:11.757Z,8.40
2019-02-15T16:34:41.493Z,8.30
2019-02-15T16:37:11.203Z,8.40
2019-02-15T16:39:40.966Z,8.40
2019-02-15T16:42:10.783Z,8.40
2019-02-15T16:44:40.493Z,8.30
2019-02-15T16:47:10.254Z,8.30
2019-02-15T16:49:39.904Z,8.10
2019-02-15T16:52:09.634Z,8.10
2019-02-15T16:54:39.315Z,8.00
2019-02-15T16:57:09.075Z,7.80
2019-02-15T16:59:38.769Z,7.80
2019-02-15T17:02:09.536Z,7.60
2019-02-15T17:04:39.279Z,7.50
2019-02-15T17:07:09.077Z,7.60
2019-02-15T17:09:38.750Z,7.50
2019-02-15T17:12:08.519Z,7.50
2019-02-15T17:14:38.230Z,7.40
2019-02-15T17:17:07.967Z,7.40
2019-02-15T17:19:38.337Z,7.40
2019-02-15T17:22:08.110Z,7.30
2019-02-15T17:24:40.788Z,7.20
2019-02-15T17:27:10.715Z,7.20
2019-02-15T17:29:40.416Z,7.20
2019-02-15T17:32:10.176Z,7.20
2019-02-15T17:34:40.104Z,7.20
2019-02-15T17:37:10.082Z,7.20
2019-02-15T17:39:39.915Z,7.10
2019-02-15T17:42:10.046Z,7.10
2019-02-15T17:44:39.769Z,7.00
2019-02-15T17:47:13.160Z,6.90
2019-02-15T17:49:43.626Z,6.90
2019-02-15T17:52:13.343Z,6.80
2019-02-15T17:54:43.017Z,6.80
2019-02-15T17:57:12.952Z,6.70
2019-02-15T17:59:42.765Z,6.70
2019-02-15T18:02:12.646Z,6.60
2019-02-15T18:04:42.403Z,6.60
2019-02-15T18:07:13.636Z,6.50
2019-02-15T18:09:44.085Z,6.40
2019-02-15T18:12:13.774Z,6.40
2019-02-15T18:14:44.547Z,6.20
2019-02-15T18:17:17.527Z,6.30
2019-02-15T18:19:47.565Z,6.20
2019-02-15T18:22:20.152Z,6.20
2019-02-15T18:24:52.025Z,6.20
2019-02-15T18:27:22.070Z,6.20
2019-02-15T18:29:51.832Z,6.10
2019-02-15T18:32:30.916Z,6.00
2019-02-15T18:35:02.683Z,6.10
2019-02-15T18:37:34.644Z,6.00
2019-02-15T18:40:06.867Z,6.00
2019-02-15T18:42:36.571Z,5.90
2019-02-15T18:45:06.942Z,5.90
2019-02-15T18:47:36.883Z,5.80
2019-02-15T18:50:07.340Z,5.70
2019-02-15T18:52:37.251Z,5.80
2019-02-15T18:55:07.666Z,5.70
2019-02-15T18:57:37.472Z,5.70
2019-02-15T19:00:09.350Z,5.70
2019-02-15T19:02:39.030Z,5.70
2019-02-15T19:05:10.255Z,5.60
2019-02-15T19:07:39.922Z,5.60
2019-02-15T19:10:11.223Z,5.60
2019-02-15T19:12:40.955Z,5.50
2019-02-15T19:15:11.542Z,5.50
2019-02-15T19:17:41.267Z,5.50
2019-02-15T19:20:12.454Z,5.60
2019-02-15T19:22:42.286Z,5.50
2019-02-15T19:25:12.954Z,5.50
2019-02-15T19:27:42.882Z,5.50
2019-02-15T19:30:15.955Z,5.50
2019-02-15T19:32:45.858Z,5.50
2019-02-15T19:35:15.750Z,5.50
2019-02-15T19:37:45.458Z,5.50
2019-02-15T19:40:15.401Z,5.50
2019-02-15T19:42:46.856Z,5.50
2019-02-15T19:45:18.152Z,5.50
2019-02-15T19:47:48.379Z,5.50
2019-02-15T19:50:18.478Z,5.40
2019-02-15T19:52:48.798Z,5.50
2019-02-15T19:55:18.743Z,5.50
2019-02-15T19:57:48.674Z,5.50
2019-02-15T20:00:18.853Z,5.40
2019-02-15T20:02:49.907Z,5.40
2019-02-15T20:05:19.753Z,5.30
2019-02-15T20:07:49.421Z,5.30
2019-02-15T20:10:20.628Z,5.30
2019-02-15T20:12:50.403Z,5.20
2019-02-15T20:15:20.140Z,5.20
2019-02-15T20:17:49.828Z,5.10
2019-02-15T20:20:19.594Z,5.20
2019-02-15T20:22:49.315Z,5.20
2019-02-15T20:25:19.156Z,5.20
2019-02-15T20:27:50.267Z,5.30
2019-02-15T20:30:20.401Z,5.30
2019-02-15T20:32:50.283Z,5.30
2019-02-15T20:35:20.063Z,5.20
2019-02-15T20:37:49.755Z,5.30
2019-02-15T20:40:20.588Z,5.20
2019-02-15T20:42:52.053Z,5.20
2019-02-15T20:45:22.155Z,5.10
2019-02-15T20:47:51.875Z,5.00
2019-02-15T20:50:21.785Z,4.90
2019-02-15T20:52:51.495Z,4.90
2019-02-15T20:55:21.278Z,4.70
2019-02-15T20:57:50.931Z,4.70
2019-02-15T21:00:23.064Z,4.70
2019-02-15T21:02:52.780Z,4.70
2019-02-15T21:05:23.692Z,4.80
2019-02-15T21:07:53.559Z,4.90
2019-02-15T21:10:23.359Z,5.00
2019-02-15T21:12:53.063Z,4.90
2019-02-15T21:15:25.162Z,4.90
2019-02-15T21:17:54.869Z,4.80
2019-02-15T21:20:24.813Z,4.80
2019-02-15T21:22:54.742Z,4.70
2019-02-15T21:25:24.668Z,4.60
2019-02-15T21:27:54.514Z,4.60
2019-02-15T21:30:24.544Z,4.50
2019-02-15T21:32:54.254Z,4.40
2019-02-15T21:35:24.120Z,4.40
2019-02-15T21:37:53.814Z,4.40
2019-02-15T21:40:26.064Z,4.40
2019-02-15T21:42:55.735Z,4.30
2019-02-15T21:45:25.471Z,4.30
2019-02-15T21:47:55.288Z,4.20
2019-02-15T21:50:27.505Z,4.20
2019-02-15T21:52:57.482Z,4.10
2019-02-15T21:55:27.639Z,4.10
2019-02-15T21:58:01.404Z,4.00
2019-02-15T22:00:29.179Z,4.00
2019-02-15T22:03:00.022Z,4.00
2019-02-15T22:05:29.796Z,4.00
2019-02-15T22:07:59.701Z,3.90
2019-02-15T22:10:29.567Z,3.90
2019-02-15T22:12:59.232Z,3.80
2019-02-15T22:15:29.012Z,3.80
2019-02-15T22:17:58.759Z,3.80
2019-02-15T22:20:28.448Z,3.70
2019-02-15T22:22:58.140Z,3.70
2019-02-15T22:25:27.871Z,3.60
2019-02-15T22:27:57.518Z,3.60
2019-02-15T22:30:27.274Z,3.60
2019-02-15T22:32:56.931Z,3.60
2019-02-15T22:35:26.750Z,3.60
2019-02-15T22:37:56.408Z,3.50
2019-02-15T22:40:40.152Z,3.40
2019-02-15T22:43:23.404Z,3.40
2019-02-15T22:45:53.133Z,3.30
2019-02-15T22:48:22.828Z,3.30
2019-02-15T22:50:52.662Z,3.30
2019-02-15T22:53:22.312Z,3.20
2019-02-15T22:55:52.057Z,3.20
2019-02-15T22:58:21.810Z,3.20
2019-02-15T23:01:02.816Z,3.20
2019-02-15T23:03:32.541Z,3.20
2019-02-15T23:06:02.300Z,3.10
2019-02-15T23:08:31.967Z,3.10
2019-02-15T23:11:01.715Z,3.00
2019-02-15T23:13:31.485Z,2.90
2019-02-15T23:16:01.255Z,3.00
2019-02-15T23:18:30.913Z,3.00
2019-02-15T23:21:00.569Z,2.90
2019-02-15T23:23:30.252Z,2.90
2019-02-15T23:25:59.930Z,2.90
2019-02-15T23:28:29.651Z,2.90
2019-02-15T23:30:59.355Z,2.90
2019-02-15T23:33:29.059Z,2.70
2019-02-15T23:35:58.719Z,2.60
2019-02-15T23:38:28.410Z,2.50
2019-02-15T23:40:58.118Z,2.40
2019-02-15T23:43:27.848Z,2.30
2019-02-15T23:45:57.492Z,2.30
2019-02-15T23:48:27.271Z,2.30
2019-02-15T23:50:56.968Z,2.30
2019-02-15T23:53:26.674Z,2.30
2019-02-15T23:55:56.536Z,2.30
2019-02-15T23:58:26.242Z,2.30
